Aviation Digital Data Service (ADDS)

Output produced by METARs form (1142 UTC 25 June 2019)
found at http://www.aviationweather.gov/metar/data/
 
Forecast for: LEHC (HUESCA-PIRINEOS , ES)
Text: TAF LEHC 250800Z 2509/2609 10012KT CAVOK TX37/2514Z TN23/2605Z
Forecast period: 0900 UTC 25 June 2019 to 0900 UTC 26 June 2019
Forecast type: FROM: standard forecast or significant change
Winds: from the E (100 degrees) at 14 MPH (12 knots; 6.2 m/s)
Visibility: 6 or more miles 10+ km)
Ceiling: unknown
Clouds: missing
Weather: no significant weather forecast for this period
Text: PROB30
Forecast period: 1200 to 1700 UTC 25 June 2019
Forecast type: TEMPORARY: The following changes expected for less than half the time period
Visibility: missing
Ceiling: at least 12,000 feet AGL
Clouds: few clouds at 10000 feet AGL
Weather: no significant weather forecast for this period